sensor_id;sensor_type;location;lat;lon;timestamp;pressure;altitude;pressure_sealevel;temperature;humidity
64200;BME280;50516;52.272;5.136;2023-04-04T00:00:23;103104.63;;;5.03;59.42
64200;BME280;50516;52.272;5.136;2023-04-04T00:02:49;103105.16;;;4.98;59.94
64200;BME280;50516;52.272;5.136;2023-04-04T00:05:15;103095.16;;;4.90;59.99
64200;BME280;50516;52.272;5.136;2023-04-04T00:07:40;103094.94;;;5.00;59.80
64200;BME280;50516;52.272;5.136;2023-04-04T00:10:06;103092.28;;;4.92;60.17
64200;BME280;50516;52.272;5.136;2023-04-04T00:12:31;103088.53;;;4.93;60.46
64200;BME280;50516;52.272;5.136;2023-04-04T00:14:57;103083.03;;;5.01;59.89
64200;BME280;50516;52.272;5.136;2023-04-04T00:17:22;103084.47;;;4.89;60.44
64200;BME280;50516;52.272;5.136;2023-04-04T00:19:47;103085.44;;;4.96;60.19
64200;BME280;50516;52.272;5.136;2023-04-04T00:22:12;103082.59;;;4.89;60.27
64200;BME280;50516;52.272;5.136;2023-04-04T00:24:38;103072.44;;;4.83;60.71
64200;BME280;50516;52.272;5.136;2023-04-04T00:27:04;103070.38;;;4.85;60.93
64200;BME280;50516;52.272;5.136;2023-04-04T00:29:29;103062.88;;;4.87;60.78
64200;BME280;50516;52.272;5.136;2023-04-04T00:31:54;103067.34;;;4.80;60.89
64200;BME280;50516;52.272;5.136;2023-04-04T00:34:20;103065.28;;;4.82;60.71
64200;BME280;50516;52.272;5.136;2023-04-04T00:36:45;103078.09;;;4.73;60.90
64200;BME280;50516;52.272;5.136;2023-04-04T00:39:11;103079.66;;;4.68;61.48
64200;BME280;50516;52.272;5.136;2023-04-04T00:41:37;103077.22;;;4.73;61.43
64200;BME280;50516;52.272;5.136;2023-04-04T00:44:03;103086.56;;;4.79;61.23
64200;BME280;50516;52.272;5.136;2023-04-04T00:46:29;103074.03;;;4.69;61.35
64200;BME280;50516;52.272;5.136;2023-04-04T00:48:55;103076.22;;;4.74;61.69
64200;BME280;50516;52.272;5.136;2023-04-04T00:51:20;103075.06;;;4.68;61.67
64200;BME280;50516;52.272;5.136;2023-04-04T00:53:46;103073.84;;;4.71;61.51
64200;BME280;50516;52.272;5.136;2023-04-04T00:56:12;103075.72;;;4.70;61.60
64200;BME280;50516;52.272;5.136;2023-04-04T00:58:39;103072.13;;;4.70;61.70
64200;BME280;50516;52.272;5.136;2023-04-04T01:01:05;103067.09;;;4.67;62.27
64200;BME280;50516;52.272;5.136;2023-04-04T01:03:31;103066.22;;;4.66;62.37
64200;BME280;50516;52.272;5.136;2023-04-04T01:05:57;103065.38;;;4.66;62.38
64200;BME280;50516;52.272;5.136;2023-04-04T01:08:25;103064.19;;;4.60;62.48
64200;BME280;50516;52.272;5.136;2023-04-04T01:10:51;103062.03;;;4.55;62.95
64200;BME280;50516;52.272;5.136;2023-04-04T01:13:17;103062.38;;;4.52;62.59
64200;BME280;50516;52.272;5.136;2023-04-04T01:15:42;103057.97;;;4.51;63.14
64200;BME280;50516;52.272;5.136;2023-04-04T01:18:10;103055.41;;;4.50;63.28
64200;BME280;50516;52.272;5.136;2023-04-04T01:20:43;103052.56;;;4.43;63.56
64200;BME280;50516;52.272;5.136;2023-04-04T01:23:11;103057.34;;;4.41;63.78
64200;BME280;50516;52.272;5.136;2023-04-04T01:25:37;103056.66;;;4.39;63.68
64200;BME280;50516;52.272;5.136;2023-04-04T01:28:02;103058.03;;;4.35;64.29
64200;BME280;50516;52.272;5.136;2023-04-04T01:30:33;103058.03;;;4.35;64.20
64200;BME280;50516;52.272;5.136;2023-04-04T01:33:09;103068.44;;;4.31;64.22
64200;BME280;50516;52.272;5.136;2023-04-04T01:38:25;103068.63;;;4.22;64.57
64200;BME280;50516;52.272;5.136;2023-04-04T01:40:54;103073.22;;;4.21;64.87
64200;BME280;50516;52.272;5.136;2023-04-04T01:43:21;103077.81;;;4.20;64.89
64200;BME280;50516;52.272;5.136;2023-04-04T01:45:48;103077.50;;;4.15;64.90
64200;BME280;50516;52.272;5.136;2023-04-04T01:48:13;103076.13;;;4.11;65.14
64200;BME280;50516;52.272;5.136;2023-04-04T01:50:40;103064.59;;;4.09;65.32
64200;BME280;50516;52.272;5.136;2023-04-04T01:53:06;103066.28;;;4.02;65.42
64200;BME280;50516;52.272;5.136;2023-04-04T01:55:31;103071.41;;;3.97;65.55
64200;BME280;50516;52.272;5.136;2023-04-04T01:57:57;103061.75;;;3.94;65.99
64200;BME280;50516;52.272;5.136;2023-04-04T02:00:22;103063.75;;;3.92;66.14
64200;BME280;50516;52.272;5.136;2023-04-04T02:02:48;103066.31;;;3.86;66.21
64200;BME280;50516;52.272;5.136;2023-04-04T02:05:13;103052.25;;;3.82;66.23
64200;BME280;50516;52.272;5.136;2023-04-04T02:07:38;103061.25;;;3.74;66.61
64200;BME280;50516;52.272;5.136;2023-04-04T02:10:04;103065.00;;;3.73;66.87
64200;BME280;50516;52.272;5.136;2023-04-04T02:12:30;103064.31;;;3.71;66.72
64200;BME280;50516;52.272;5.136;2023-04-04T02:14:55;103070.47;;;3.65;66.83
64200;BME280;50516;52.272;5.136;2023-04-04T02:17:20;103074.00;;;3.65;67.10
64200;BME280;50516;52.272;5.136;2023-04-04T02:19:46;103076.91;;;3.64;67.24
64200;BME280;50516;52.272;5.136;2023-04-04T02:22:11;103074.84;;;3.58;66.97
64200;BME280;50516;52.272;5.136;2023-04-04T02:24:36;103072.81;;;3.52;67.59
64200;BME280;50516;52.272;5.136;2023-04-04T02:27:02;103071.47;;;3.47;67.33
64200;BME280;50516;52.272;5.136;2023-04-04T02:29:28;103064.69;;;3.43;68.10
64200;BME280;50516;52.272;5.136;2023-04-04T02:31:54;103072.16;;;3.41;68.23
64200;BME280;50516;52.272;5.136;2023-04-04T02:34:19;103061.63;;;3.38;67.93
64200;BME280;50516;52.272;5.136;2023-04-04T02:36:44;103055.19;;;3.31;67.77
64200;BME280;50516;52.272;5.136;2023-04-04T02:39:09;103054.50;;;3.29;67.76
64200;BME280;50516;52.272;5.136;2023-04-04T02:41:35;103061.28;;;3.25;68.52
64200;BME280;50516;52.272;5.136;2023-04-04T02:44:00;103052.28;;;3.16;68.27
64200;BME280;50516;52.272;5.136;2023-04-04T02:46:25;103045.84;;;3.17;68.43
64200;BME280;50516;52.272;5.136;2023-04-04T02:48:51;103055.16;;;3.15;68.26
64200;BME280;50516;52.272;5.136;2023-04-04T02:51:16;103049.72;;;3.15;67.89
64200;BME280;50516;52.272;5.136;2023-04-04T02:53:42;103050.22;;;3.10;68.40
64200;BME280;50516;52.272;5.136;2023-04-04T02:56:07;103047.19;;;3.05;68.12
64200;BME280;50516;52.272;5.136;2023-04-04T02:58:33;103052.25;;;3.00;69.10
64200;BME280;50516;52.272;5.136;2023-04-04T03:00:58;103043.44;;;2.98;68.67
64200;BME280;50516;52.272;5.136;2023-04-04T03:03:24;103050.75;;;2.97;68.42
64200;BME280;50516;52.272;5.136;2023-04-04T03:05:49;103048.72;;;2.99;68.61
64200;BME280;50516;52.272;5.136;2023-04-04T03:08:15;103043.28;;;2.91;68.78
64200;BME280;50516;52.272;5.136;2023-04-04T03:10:40;103041.41;;;2.91;68.71
64200;BME280;50516;52.272;5.136;2023-04-04T03:13:06;103046.66;;;2.93;69.09
64200;BME280;50516;52.272;5.136;2023-04-04T03:15:31;103046.66;;;2.93;69.14
64200;BME280;50516;52.272;5.136;2023-04-04T03:17:57;103049.03;;;2.88;68.64
64200;BME280;50516;52.272;5.136;2023-04-04T03:20:23;103038.34;;;2.95;68.86
64200;BME280;50516;52.272;5.136;2023-04-04T03:22:48;103043.59;;;2.88;69.05
64200;BME280;50516;52.272;5.136;2023-04-04T03:25:13;103041.06;;;2.86;69.13
64200;BME280;50516;52.272;5.136;2023-04-04T03:27:39;103033.09;;;2.85;68.87
64200;BME280;50516;52.272;5.136;2023-04-04T03:30:08;103041.22;;;2.85;69.52
64200;BME280;50516;52.272;5.136;2023-04-04T03:32:35;103038.50;;;2.77;69.62
64200;BME280;50516;52.272;5.136;2023-04-04T03:35:01;103037.47;;;2.78;69.63
64200;BME280;50516;52.272;5.136;2023-04-04T03:37:28;103044.59;;;2.79;69.81
64200;BME280;50516;52.272;5.136;2023-04-04T03:39:54;103030.34;;;2.77;69.18
64200;BME280;50516;52.272;5.136;2023-04-04T03:42:19;103042.88;;;2.69;69.37
64200;BME280;50516;52.272;5.136;2023-04-04T03:44:44;103040.84;;;2.63;70.26
64200;BME280;50516;52.272;5.136;2023-04-04T03:47:10;103035.75;;;2.60;70.24
64200;BME280;50516;52.272;5.136;2023-04-04T03:49:35;103038.47;;;2.60;70.30
64200;BME280;50516;52.272;5.136;2023-04-04T03:52:00;103039.66;;;2.66;69.77
64200;BME280;50516;52.272;5.136;2023-04-04T03:54:28;103032.50;;;2.65;69.34
64200;BME280;50516;52.272;5.136;2023-04-04T03:56:54;103049.47;;;2.59;69.42
64200;BME280;50516;52.272;5.136;2023-04-04T03:59:20;103041.50;;;2.57;69.95
64200;BME280;50516;52.272;5.136;2023-04-04T04:01:47;103034.84;;;2.51;69.96
64200;BME280;50516;52.272;5.136;2023-04-04T04:04:12;103035.03;;;2.50;70.13
64200;BME280;50516;52.272;5.136;2023-04-04T04:06:37;103044.19;;;2.49;70.13
64200;BME280;50516;52.272;5.136;2023-04-04T04:09:03;103049.59;;;2.49;70.46
64200;BME280;50516;52.272;5.136;2023-04-04T04:11:28;103040.59;;;2.48;70.44
64200;BME280;50516;52.272;5.136;2023-04-04T04:13:54;103047.91;;;2.48;70.46
64200;BME280;50516;52.272;5.136;2023-04-04T04:16:19;103042.13;;;2.43;70.38
64200;BME280;50516;52.272;5.136;2023-04-04T04:18:46;103045.16;;;2.40;70.58
64200;BME280;50516;52.272;5.136;2023-04-04T04:21:11;103040.06;;;2.36;70.80
64200;BME280;50516;52.272;5.136;2023-04-04T04:23:36;103040.22;;;2.35;70.49
64200;BME280;50516;52.272;5.136;2023-04-04T04:26:02;103038.50;;;2.34;70.24
64200;BME280;50516;52.272;5.136;2023-04-04T04:28:27;103039.88;;;2.30;70.73
64200;BME280;50516;52.272;5.136;2023-04-04T04:30:53;103042.06;;;2.26;70.54
64200;BME280;50516;52.272;5.136;2023-04-04T04:33:18;103039.34;;;2.26;70.99
64200;BME280;50516;52.272;5.136;2023-04-04T04:35:43;103044.94;;;2.25;70.73
64200;BME280;50516;52.272;5.136;2023-04-04T04:38:09;103039.69;;;2.23;70.80
64200;BME280;50516;52.272;5.136;2023-04-04T04:40:35;103030.50;;;2.24;70.75
64200;BME280;50516;52.272;5.136;2023-04-04T04:43:01;103035.09;;;2.24;70.42
64200;BME280;50516;52.272;5.136;2023-04-04T04:45:26;103050.53;;;2.23;71.11
64200;BME280;50516;52.272;5.136;2023-04-04T04:47:52;103050.13;;;2.18;71.05
64200;BME280;50516;52.272;5.136;2023-04-04T04:50:17;103047.25;;;2.19;71.11
64200;BME280;50516;52.272;5.136;2023-04-04T04:52:43;103050.84;;;2.20;71.03
64200;BME280;50516;52.272;5.136;2023-04-04T04:55:09;103050.84;;;2.20;70.89
64200;BME280;50516;52.272;5.136;2023-04-04T04:57:35;103050.84;;;2.20;70.46
64200;BME280;50516;52.272;5.136;2023-04-04T05:00:00;103047.78;;;2.15;70.65
64200;BME280;50516;52.272;5.136;2023-04-04T05:02:26;103042.00;;;2.18;70.78
64200;BME280;50516;52.272;5.136;2023-04-04T05:04:52;103045.75;;;2.17;71.08
64200;BME280;50516;52.272;5.136;2023-04-04T05:07:17;103042.00;;;2.18;70.95
64200;BME280;50516;52.272;5.136;2023-04-04T05:09:43;103039.13;;;2.19;71.49
64200;BME280;50516;52.272;5.136;2023-04-04T05:12:08;103044.72;;;2.18;71.67
64200;BME280;50516;52.272;5.136;2023-04-04T05:14:33;103046.25;;;2.21;71.42
64200;BME280;50516;52.272;5.136;2023-04-04T05:16:58;103058.81;;;2.22;71.47
64200;BME280;50516;52.272;5.136;2023-04-04T05:19:24;103057.63;;;2.24;71.31
64200;BME280;50516;52.272;5.136;2023-04-04T05:21:49;103056.25;;;2.20;71.37
64200;BME280;50516;52.272;5.136;2023-04-04T05:24:14;103062.53;;;2.21;71.48
64200;BME280;50516;52.272;5.136;2023-04-04T05:26:41;103070.13;;;2.17;71.65
64200;BME280;50516;52.272;5.136;2023-04-04T05:29:06;103065.06;;;2.22;71.68
64200;BME280;50516;52.272;5.136;2023-04-04T05:31:32;103059.84;;;2.29;70.97
64200;BME280;50516;52.272;5.136;2023-04-04T05:33:57;103065.28;;;2.29;71.11
64200;BME280;50516;52.272;5.136;2023-04-04T05:36:23;103058.38;;;2.34;71.45
64200;BME280;50516;52.272;5.136;2023-04-04T05:38:48;103060.38;;;2.32;71.45
64200;BME280;50516;52.272;5.136;2023-04-04T05:41:13;103051.22;;;2.33;71.07
64200;BME280;50516;52.272;5.136;2023-04-04T05:43:39;103046.66;;;2.34;71.11
64200;BME280;50516;52.272;5.136;2023-04-04T05:46:04;103049.91;;;2.37;71.55
64200;BME280;50516;52.272;5.136;2023-04-04T05:48:30;103054.81;;;2.42;71.32
64200;BME280;50516;52.272;5.136;2023-04-04T05:50:55;103057.06;;;2.55;70.63
64200;BME280;50516;52.272;5.136;2023-04-04T05:53:20;103051.69;;;2.63;70.72
64200;BME280;50516;52.272;5.136;2023-04-04T05:55:50;103055.78;;;2.76;70.52
64200;BME280;50516;52.272;5.136;2023-04-04T05:58:15;103063.59;;;2.87;70.36
64200;BME280;50516;52.272;5.136;2023-04-04T06:00:40;103055.97;;;2.82;70.47
64200;BME280;50516;52.272;5.136;2023-04-04T06:03:06;103058.84;;;2.81;70.62
64200;BME280;50516;52.272;5.136;2023-04-04T06:05:32;103054.78;;;2.85;69.97
64200;BME280;50516;52.272;5.136;2023-04-04T06:07:57;103051.94;;;3.03;70.30
64200;BME280;50516;52.272;5.136;2023-04-04T06:10:22;103055.16;;;3.23;69.57
64200;BME280;50516;52.272;5.136;2023-04-04T06:12:48;103050.25;;;3.43;69.05
64200;BME280;50516;52.272;5.136;2023-04-04T06:15:13;103052.28;;;3.57;68.98
64200;BME280;50516;52.272;5.136;2023-04-04T06:17:38;103054.31;;;3.55;69.24
64200;BME280;50516;52.272;5.136;2023-04-04T06:20:04;103050.06;;;3.61;69.44
64200;BME280;50516;52.272;5.136;2023-04-04T06:22:30;103052.06;;;3.83;69.20
64200;BME280;50516;52.272;5.136;2023-04-04T06:24:56;103054.09;;;3.90;68.89
64200;BME280;50516;52.272;5.136;2023-04-04T06:27:21;103057.81;;;3.97;69.26
64200;BME280;50516;52.272;5.136;2023-04-04T06:29:46;103057.97;;;4.12;69.03
64200;BME280;50516;52.272;5.136;2023-04-04T06:32:12;103057.22;;;4.26;68.81
64200;BME280;50516;52.272;5.136;2023-04-04T06:34:37;103066.16;;;4.43;68.50
64200;BME280;50516;52.272;5.136;2023-04-04T06:37:03;103066.44;;;4.56;68.82
64200;BME280;50516;52.272;5.136;2023-04-04T06:39:28;103075.25;;;4.67;68.28
64200;BME280;50516;52.272;5.136;2023-04-04T06:41:55;103065.75;;;4.86;68.28
64200;BME280;50516;52.272;5.136;2023-04-04T06:44:20;103065.47;;;5.04;67.44
64200;BME280;50516;52.272;5.136;2023-04-04T06:46:46;103069.53;;;5.08;67.46
64200;BME280;50516;52.272;5.136;2023-04-04T06:49:13;103069.41;;;5.24;67.28
64200;BME280;50516;52.272;5.136;2023-04-04T06:51:39;103063.53;;;5.36;66.84
64200;BME280;50516;52.272;5.136;2023-04-04T06:54:05;103063.66;;;5.42;66.35
64200;BME280;50516;52.272;5.136;2023-04-04T06:56:31;103062.84;;;5.57;65.80
64200;BME280;50516;52.272;5.136;2023-04-04T06:58:56;103073.84;;;5.63;65.75
64200;BME280;50516;52.272;5.136;2023-04-04T07:01:21;103074.81;;;5.56;65.70
64200;BME280;50516;52.272;5.136;2023-04-04T07:03:47;103074.53;;;5.65;65.03
64200;BME280;50516;52.272;5.136;2023-04-04T07:06:13;103085.38;;;5.74;64.63
64200;BME280;50516;52.272;5.136;2023-04-04T07:08:38;103075.28;;;5.74;65.20
64200;BME280;50516;52.272;5.136;2023-04-04T07:11:04;103081.31;;;5.84;64.24
64200;BME280;50516;52.272;5.136;2023-04-04T07:13:30;103080.72;;;5.97;62.87
64200;BME280;50516;52.272;5.136;2023-04-04T07:15:55;103077.81;;;6.29;62.11
64200;BME280;50516;52.272;5.136;2023-04-04T07:18:21;103080.91;;;6.40;61.87
64200;BME280;50516;52.272;5.136;2023-04-04T07:20:46;103074.63;;;6.40;59.85
64200;BME280;50516;52.272;5.136;2023-04-04T07:23:12;103079.13;;;6.48;60.59
64200;BME280;50516;52.272;5.136;2023-04-04T07:25:39;103068.03;;;6.49;59.48
64200;BME280;50516;52.272;5.136;2023-04-04T07:28:04;103072.63;;;6.64;59.09
64200;BME280;50516;52.272;5.136;2023-04-04T07:30:30;103068.09;;;6.56;60.52
64200;BME280;50516;52.272;5.136;2023-04-04T07:33:01;103063.81;;;6.68;61.19
64200;BME280;50516;52.272;5.136;2023-04-04T07:35:27;103061.78;;;6.92;58.78
64200;BME280;50516;52.272;5.136;2023-04-04T07:37:52;103071.13;;;6.98;59.93
64200;BME280;50516;52.272;5.136;2023-04-04T07:40:18;103060.00;;;7.21;59.36
64200;BME280;50516;52.272;5.136;2023-04-04T07:42:44;103067.00;;;7.08;56.82
64200;BME280;50516;52.272;5.136;2023-04-04T07:45:10;103071.38;;;7.24;57.36
64200;BME280;50516;52.272;5.136;2023-04-04T07:47:36;103078.13;;;7.50;56.83
64200;BME280;50516;52.272;5.136;2023-04-04T07:50:02;103070.47;;;7.67;57.08
64200;BME280;50516;52.272;5.136;2023-04-04T07:52:28;103067.19;;;7.78;56.29
64200;BME280;50516;52.272;5.136;2023-04-04T07:54:53;103067.28;;;7.85;55.92
64200;BME280;50516;52.272;5.136;2023-04-04T07:57:18;103065.06;;;8.02;56.13
64200;BME280;50516;52.272;5.136;2023-04-04T07:59:44;103056.00;;;8.01;53.63
64200;BME280;50516;52.272;5.136;2023-04-04T08:02:10;103054.34;;;8.07;53.97
64200;BME280;50516;52.272;5.136;2023-04-04T08:04:35;103065.41;;;8.20;53.85
64200;BME280;50516;52.272;5.136;2023-04-04T08:07:01;103060.94;;;8.13;52.99
64200;BME280;50516;52.272;5.136;2023-04-04T08:09:26;103058.00;;;8.14;50.82
64200;BME280;50516;52.272;5.136;2023-04-04T08:11:58;103058.13;;;7.99;49.79
64200;BME280;50516;52.272;5.136;2023-04-04T08:14:23;103058.63;;;8.16;50.82
64200;BME280;50516;52.272;5.136;2023-04-04T08:16:48;103057.38;;;8.19;49.01
64200;BME280;50516;52.272;5.136;2023-04-04T08:19:14;103047.34;;;8.33;48.93
64200;BME280;50516;52.272;5.136;2023-04-04T08:21:40;103053.22;;;8.30;49.90
64200;BME280;50516;52.272;5.136;2023-04-04T08:24:07;103051.06;;;8.25;47.44
64200;BME280;50516;52.272;5.136;2023-04-04T08:26:32;103049.06;;;8.40;47.61
64200;BME280;50516;52.272;5.136;2023-04-04T08:28:57;103057.16;;;8.55;45.04
64200;BME280;50516;52.272;5.136;2023-04-04T08:31:23;103052.56;;;8.63;45.43
64200;BME280;50516;52.272;5.136;2023-04-04T08:33:48;103046.28;;;8.69;43.97
64200;BME280;50516;52.272;5.136;2023-04-04T08:36:14;103042.28;;;8.78;44.51
64200;BME280;50516;52.272;5.136;2023-04-04T08:38:40;103041.47;;;8.91;45.27
64200;BME280;50516;52.272;5.136;2023-04-04T08:41:05;103032.84;;;9.01;44.93
64200;BME280;50516;52.272;5.136;2023-04-04T08:43:33;103032.44;;;9.04;45.83
64200;BME280;50516;52.272;5.136;2023-04-04T08:46:01;103029.06;;;8.95;45.31
64200;BME280;50516;52.272;5.136;2023-04-04T08:48:29;103034.56;;;9.08;44.68
64200;BME280;50516;52.272;5.136;2023-04-04T08:50:57;103038.13;;;9.16;44.88
64200;BME280;50516;52.272;5.136;2023-04-04T08:53:23;103038.13;;;9.16;44.39
64200;BME280;50516;52.272;5.136;2023-04-04T08:55:50;103035.81;;;9.06;43.58
64200;BME280;50516;52.272;5.136;2023-04-04T08:58:16;103041.66;;;8.89;43.31
64200;BME280;50516;52.272;5.136;2023-04-04T09:00:42;103040.22;;;8.93;43.95
64200;BME280;50516;52.272;5.136;2023-04-04T09:03:28;103049.34;;;9.27;43.75
64200;BME280;50516;52.272;5.136;2023-04-04T09:05:57;103040.91;;;9.22;43.23
64200;BME280;50516;52.272;5.136;2023-04-04T09:08:23;103044.84;;;8.93;42.31
64200;BME280;50516;52.272;5.136;2023-04-04T09:10:50;103043.13;;;8.79;42.45
64200;BME280;50516;52.272;5.136;2023-04-04T09:13:16;103046.31;;;8.95;42.59
64200;BME280;50516;52.272;5.136;2023-04-04T09:15:46;103047.63;;;9.13;42.49
64200;BME280;50516;52.272;5.136;2023-04-04T09:18:14;103047.53;;;8.73;43.90
64200;BME280;50516;52.272;5.136;2023-04-04T09:20:41;103041.88;;;8.81;43.93
64200;BME280;50516;52.272;5.136;2023-04-04T09:23:08;103048.44;;;8.87;43.67
64200;BME280;50516;52.272;5.136;2023-04-04T09:25:34;103044.19;;;8.84;42.94
64200;BME280;50516;52.272;5.136;2023-04-04T09:28:02;103047.63;;;9.00;43.29
64200;BME280;50516;52.272;5.136;2023-04-04T09:30:30;103048.06;;;9.17;42.73
64200;BME280;50516;52.272;5.136;2023-04-04T09:32:59;103043.38;;;9.04;42.24
64200;BME280;50516;52.272;5.136;2023-04-04T09:35:25;103053.06;;;8.93;41.62
64200;BME280;50516;52.272;5.136;2023-04-04T09:37:51;103045.09;;;8.98;42.24
64200;BME280;50516;52.272;5.136;2023-04-04T09:40:17;103044.69;;;9.08;41.46
64200;BME280;50516;52.272;5.136;2023-04-04T09:42:42;103040.03;;;9.22;42.13
64200;BME280;50516;52.272;5.136;2023-04-04T09:45:09;103036.47;;;9.35;41.58
64200;BME280;50516;52.272;5.136;2023-04-04T09:47:39;103025.28;;;9.43;41.19
64200;BME280;50516;52.272;5.136;2023-04-04T09:50:06;103022.97;;;9.20;40.74
64200;BME280;50516;52.272;5.136;2023-04-04T09:52:32;103016.19;;;9.09;41.32
64200;BME280;50516;52.272;5.136;2023-04-04T09:55:02;103015.16;;;9.17;41.34
64200;BME280;50516;52.272;5.136;2023-04-04T09:57:29;103017.69;;;9.18;40.97
64200;BME280;50516;52.272;5.136;2023-04-04T09:59:59;103020.22;;;9.20;40.94
64200;BME280;50516;52.272;5.136;2023-04-04T10:02:25;103016.44;;;9.27;41.21
64200;BME280;50516;52.272;5.136;2023-04-04T10:04:52;103018.97;;;9.36;40.87
64200;BME280;50516;52.272;5.136;2023-04-04T10:07:17;103022.75;;;9.35;41.17
64200;BME280;50516;52.272;5.136;2023-04-04T10:09:45;103020.66;;;9.23;40.92
64200;BME280;50516;52.272;5.136;2023-04-04T10:12:10;103025.72;;;9.26;41.23
64200;BME280;50516;52.272;5.136;2023-04-04T10:14:36;103021.47;;;9.17;41.48
64200;BME280;50516;52.272;5.136;2023-04-04T10:17:08;103022.97;;;9.06;41.61
64200;BME280;50516;52.272;5.136;2023-04-04T10:19:37;103016.03;;;9.24;41.92
64200;BME280;50516;52.272;5.136;2023-04-04T10:22:06;103018.75;;;9.30;41.42
64200;BME280;50516;52.272;5.136;2023-04-04T10:24:32;103011.78;;;9.08;41.62
64200;BME280;50516;52.272;5.136;2023-04-04T10:26:58;103004.63;;;9.34;41.60
64200;BME280;50516;52.272;5.136;2023-04-04T10:29:24;103009.06;;;9.21;42.11
64200;BME280;50516;52.272;5.136;2023-04-04T10:31:56;103002.94;;;9.26;42.10
64200;BME280;50516;52.272;5.136;2023-04-04T10:34:30;102996.19;;;9.15;41.79
64200;BME280;50516;52.272;5.136;2023-04-04T10:37:12;103002.50;;;9.09;41.68
64200;BME280;50516;52.272;5.136;2023-04-04T10:42:14;102996.81;;;9.10;41.63
64200;BME280;50516;52.272;5.136;2023-04-04T10:44:44;102992.59;;;9.41;42.15
64200;BME280;50516;52.272;5.136;2023-04-04T10:47:21;102992.81;;;9.40;42.10
64200;BME280;50516;52.272;5.136;2023-04-04T10:49:49;102986.69;;;9.38;42.36
64200;BME280;50516;52.272;5.136;2023-04-04T10:52:17;102978.25;;;9.59;42.25
64200;BME280;50516;52.272;5.136;2023-04-04T10:54:43;102988.56;;;9.71;42.57
64200;BME280;50516;52.272;5.136;2023-04-04T10:57:10;102985.84;;;9.44;43.08
64200;BME280;50516;52.272;5.136;2023-04-04T11:00:01;102988.59;;;9.44;42.33
64200;BME280;50516;52.272;5.136;2023-04-04T11:02:59;102981.84;;;9.53;40.94
64200;BME280;50516;52.272;5.136;2023-04-04T11:05:34;102980.13;;;9.65;40.88
64200;BME280;50516;52.272;5.136;2023-04-04T11:08:09;102965.19;;;9.48;41.98
64200;BME280;50516;52.272;5.136;2023-04-04T11:10:48;102965.59;;;9.58;41.46
64200;BME280;50516;52.272;5.136;2023-04-04T11:13:30;102964.09;;;9.56;41.42
64200;BME280;50516;52.272;5.136;2023-04-04T11:16:11;102956.91;;;9.68;41.51
64200;BME280;50516;52.272;5.136;2023-04-04T11:31:28;102959.03;;;9.73;41.10
64200;BME280;50516;52.272;5.136;2023-04-04T11:33:58;102956.63;;;9.90;41.49
64200;BME280;50516;52.272;5.136;2023-04-04T11:39:12;102951.31;;;10.08;40.33
64200;BME280;50516;52.272;5.136;2023-04-04T11:42:01;102946.78;;;9.68;40.43
64200;BME280;50516;52.272;5.136;2023-04-04T11:44:31;102946.31;;;9.92;40.72
64200;BME280;50516;52.272;5.136;2023-04-04T11:49:35;102946.78;;;9.68;41.24
64200;BME280;50516;52.272;5.136;2023-04-04T11:52:09;102940.38;;;9.88;41.13
64200;BME280;50516;52.272;5.136;2023-04-04T11:54:40;102936.63;;;9.82;40.96
64200;BME280;50516;52.272;5.136;2023-04-04T11:57:07;102937.88;;;9.93;41.33
64200;BME280;50516;52.272;5.136;2023-04-04T11:59:38;102933.66;;;9.84;39.89
64200;BME280;50516;52.272;5.136;2023-04-04T12:02:05;102924.34;;;9.92;40.12
64200;BME280;50516;52.272;5.136;2023-04-04T12:04:30;102928.41;;;9.76;40.23
64200;BME280;50516;52.272;5.136;2023-04-04T12:06:55;102925.03;;;9.74;40.17
64200;BME280;50516;52.272;5.136;2023-04-04T12:09:23;102917.66;;;9.74;40.83
64200;BME280;50516;52.272;5.136;2023-04-04T12:11:50;102912.25;;;10.06;41.03
64200;BME280;50516;52.272;5.136;2023-04-04T12:14:20;102918.34;;;10.15;41.50
64200;BME280;50516;52.272;5.136;2023-04-04T12:16:51;102910.53;;;10.12;40.86
64200;BME280;50516;52.272;5.136;2023-04-04T12:19:17;102901.28;;;10.06;41.76
64200;BME280;50516;52.272;5.136;2023-04-04T12:21:46;102893.13;;;9.86;41.23
64200;BME280;50516;52.272;5.136;2023-04-04T12:24:12;102898.94;;;10.10;42.44
64200;BME280;50516;52.272;5.136;2023-04-04T12:26:40;102882.06;;;10.06;42.22
64200;BME280;50516;52.272;5.136;2023-04-04T12:29:10;102894.28;;;10.10;42.48
64200;BME280;50516;52.272;5.136;2023-04-04T12:31:37;102894.25;;;10.17;41.68
64200;BME280;50516;52.272;5.136;2023-04-04T12:34:04;102894.31;;;10.03;42.45
64200;BME280;50516;52.272;5.136;2023-04-04T12:36:29;102888.47;;;9.93;43.15
64200;BME280;50516;52.272;5.136;2023-04-04T12:39:04;102877.97;;;9.77;42.47
64200;BME280;50516;52.272;5.136;2023-04-04T12:41:30;102871.97;;;10.00;42.27
64200;BME280;50516;52.272;5.136;2023-04-04T12:44:04;102882.16;;;9.86;43.51
64200;BME280;50516;52.272;5.136;2023-04-04T12:46:37;102873.78;;;9.67;43.60
64200;BME280;50516;52.272;5.136;2023-04-04T12:49:14;102882.81;;;9.75;43.71
64200;BME280;50516;52.272;5.136;2023-04-04T12:51:39;102873.94;;;9.79;44.25
64200;BME280;50516;52.272;5.136;2023-04-04T12:54:05;102875.00;;;9.78;44.07
64200;BME280;50516;52.272;5.136;2023-04-04T12:56:32;102872.47;;;9.77;44.98
64200;BME280;50516;52.272;5.136;2023-04-04T12:59:02;102871.59;;;9.83;45.14
64200;BME280;50516;52.272;5.136;2023-04-04T13:01:31;102860.31;;;9.59;44.39
64200;BME280;50516;52.272;5.136;2023-04-04T13:04:01;102852.44;;;9.76;44.82
64200;BME280;50516;52.272;5.136;2023-04-04T13:06:29;102855.69;;;9.53;44.41
64200;BME280;50516;52.272;5.136;2023-04-04T13:08:56;102850.41;;;9.58;45.92
64200;BME280;50516;52.272;5.136;2023-04-04T13:11:21;102842.31;;;9.70;44.46
64200;BME280;50516;52.272;5.136;2023-04-04T13:13:47;102847.41;;;9.66;45.41
64200;BME280;50516;52.272;5.136;2023-04-04T13:16:27;102845.03;;;9.77;45.13
64200;BME280;50516;52.272;5.136;2023-04-04T13:18:53;102838.47;;;9.84;46.00
64200;BME280;50516;52.272;5.136;2023-04-04T13:21:19;102830.41;;;9.90;45.96